Time;durP1;ratioP1;P1;durP2;ratioP2;P2;SDS_P1;SDS_P2;PMS_P1;PMS_P2;Temp;Humidity;BMP_temperature;BMP_pressure;BME280_temperature;BME280_humidity;BME280_pressure;Samples;Min_cycle;Max_cycle;Signal;HPM_P1;HPM_P2
2021/06/18 00:02:08;;;;;;;15.67;9.37;;;;;;;29.32;41.89;100912.22;5073855;28;20959;-55
2021/06/18 00:04:36;;;;;;;11.87;8.60;;;;;;;29.42;41.90;100916.28;5078280;28;20458;-54
2021/06/18 00:07:04;;;;;;;14.13;8.70;;;;;;;29.56;41.72;100909.63;5066058;28;20808;-56
2021/06/18 00:09:31;;;;;;;13.27;8.30;;;;;;;29.48;41.65;100915.25;5077473;28;20478;-53
2021/06/18 00:11:59;;;;;;;13.07;8.53;;;;;;;29.33;42.03;100911.31;5077026;28;20455;-53
2021/06/18 00:14:27;;;;;;;12.50;9.17;;;;;;;29.57;41.31;100917.56;5077950;28;20460;-54
2021/06/18 00:16:55;;;;;;;12.90;8.60;;;;;;;29.75;40.94;100913.41;5064899;28;20805;-52
2021/06/18 00:19:23;;;;;;;12.13;9.60;;;;;;;29.47;41.48;100909.06;5059290;28;20482;-56
2021/06/18 00:21:51;;;;;;;14.40;9.83;;;;;;;29.62;41.45;100917.41;5048184;28;20455;-51
2021/06/18 00:24:18;;;;;;;12.90;8.50;;;;;;;29.59;41.74;100913.06;5057756;28;20490;-54
2021/06/18 00:26:46;;;;;;;16.23;8.60;;;;;;;29.67;41.31;100903.97;5057039;28;20455;-56
2021/06/18 00:29:13;;;;;;;20.20;10.00;;;;;;;29.24;42.54;100913.38;5077600;28;20486;-54
2021/06/18 00:31:44;;;;;;;12.40;8.97;;;;;;;29.12;42.36;100921.75;5078151;28;20454;-52
2021/06/18 00:34:13;;;;;;;12.03;8.37;;;;;;;29.15;42.27;100921.63;5076916;28;20474;-55
2021/06/18 00:36:44;;;;;;;15.23;9.83;;;;;;;29.21;42.09;100923.19;5077297;28;20492;-53
2021/06/18 00:39:12;;;;;;;13.73;10.60;;;;;;;29.44;41.46;100924.22;5077026;28;20467;-57
2021/06/18 00:41:40;;;;;;;12.70;8.60;;;;;;;29.43;41.45;100912.69;5077440;28;20454;-54
2021/06/18 00:44:11;;;;;;;14.40;9.13;;;;;;;29.30;42.12;100906.09;5077496;28;20549;-53
2021/06/18 00:46:38;;;;;;;16.63;9.43;;;;;;;29.19;42.25;100904.69;5076804;28;20461;-57
2021/06/18 00:49:07;;;;;;;17.87;9.87;;;;;;;29.21;41.99;100907.28;5070515;28;20486;-49
2021/06/18 00:51:36;;;;;;;13.20;10.20;;;;;;;29.13;42.45;100910.22;5077533;28;20455;-50
2021/06/18 00:54:03;;;;;;;17.03;9.10;;;;;;;28.95;42.87;100906.38;5076111;28;20470;-54
2021/06/18 00:56:31;;;;;;;11.67;9.03;;;;;;;29.07;42.26;100907.75;5076914;28;20482;-54
2021/06/18 00:58:59;;;;;;;14.27;10.60;;;;;;;28.95;43.00;100912.56;5065934;28;20519;-55
2021/06/18 01:01:27;;;;;;;14.53;10.90;;;;;;;28.99;42.58;100908.00;5077020;28;20458;-53
2021/06/18 01:03:55;;;;;;;12.07;9.57;;;;;;;29.01;42.52;100910.63;5071353;28;20569;-51
2021/06/18 01:06:27;;;;;;;16.20;9.90;;;;;;;28.86;43.20;100902.22;5076958;28;20457;-54
2021/06/18 01:09:01;;;;;;;17.40;10.17;;;;;;;28.86;42.77;100904.88;5075907;28;20477;-51
2021/06/18 01:11:33;;;;;;;14.23;9.57;;;;;;;28.87;43.08;100893.38;5077268;28;20459;-51
2021/06/18 01:14:06;;;;;;;17.30;9.80;;;;;;;28.87;42.85;100893.38;5055023;28;20922;-53
2021/06/18 01:16:35;;;;;;;13.43;9.73;;;;;;;28.96;42.89;100887.72;5056848;28;20483;-53
2021/06/18 01:19:10;;;;;;;12.40;9.70;;;;;;;28.60;43.69;100890.63;5044610;28;20495;-55
2021/06/18 01:21:40;;;;;;;15.27;9.60;;;;;;;28.82;43.59;100888.16;5056808;28;20474;-54
2021/06/18 01:24:35;;;;;;;14.20;9.63;;;;;;;28.09;45.15;100885.09;5056763;28;20823;-53
2021/06/18 01:27:15;;;;;;;17.53;9.90;;;;;;;28.27;44.49;100885.47;5052676;28;20914;-51
2021/06/18 01:29:46;;;;;;;12.23;9.17;;;;;;;28.39;44.44;100876.25;5056846;28;20479;-53
2021/06/18 01:32:18;;;;;;;16.00;9.53;;;;;;;28.32;44.72;100885.34;5055560;28;20502;-53
2021/06/18 01:34:47;;;;;;;14.10;9.97;;;;;;;28.41;44.17;100880.59;5056536;28;20451;-54
2021/06/18 01:37:19;;;;;;;13.80;10.60;;;;;;;28.36;44.70;100879.91;5054779;28;20590;-52
2021/06/18 01:39:48;;;;;;;13.30;9.63;;;;;;;28.35;44.84;100878.16;5056199;28;20529;-53
2021/06/18 01:42:16;;;;;;;15.40;10.17;;;;;;;28.05;45.69;100872.84;5054776;28;20935;-52
2021/06/18 01:44:46;;;;;;;17.23;11.87;;;;;;;28.28;44.89;100885.44;5056512;28;20546;-50
2021/06/18 01:47:16;;;;;;;16.70;9.57;;;;;;;28.19;44.95;100880.38;5054841;28;20922;-54
2021/06/18 01:49:45;;;;;;;14.97;10.30;;;;;;;28.12;45.39;100879.72;5056487;28;20942;-49
2021/06/18 01:52:14;;;;;;;14.53;9.37;;;;;;;28.03;45.20;100875.53;5045878;28;20472;-56
2021/06/18 01:54:43;;;;;;;14.90;9.53;;;;;;;28.17;45.09;100871.59;5055549;28;20487;-53
2021/06/18 01:57:12;;;;;;;13.10;9.47;;;;;;;28.24;44.79;100877.63;5043502;28;20938;-54
2021/06/18 01:59:41;;;;;;;20.03;10.37;;;;;;;28.34;44.34;100876.41;5055165;28;20475;-55
2021/06/18 02:02:10;;;;;;;15.43;10.37;;;;;;;28.38;43.92;100875.41;5054807;28;20482;-52
2021/06/18 02:04:40;;;;;;;13.67;10.00;;;;;;;28.28;45.03;100874.84;5055995;28;20455;-53
2021/06/18 02:07:08;;;;;;;17.63;10.20;;;;;;;28.09;45.81;100873.63;5052970;28;20486;-55
2021/06/18 02:09:37;;;;;;;13.37;10.23;;;;;;;27.63;46.70;100879.31;5055954;28;20959;-57
2021/06/18 02:12:05;;;;;;;15.00;10.97;;;;;;;27.53;47.11;100881.31;5045613;28;20533;-53
2021/06/18 02:14:34;;;;;;;18.23;11.23;;;;;;;27.70;46.59;100885.34;5062827;28;20455;-49
2021/06/18 02:17:03;;;;;;;16.47;11.53;;;;;;;27.69;46.70;100880.94;5058832;28;20505;-56
2021/06/18 02:19:32;;;;;;;16.50;11.90;;;;;;;27.67;46.81;100877.50;5075164;28;20470;-53
2021/06/18 02:22:00;;;;;;;17.13;12.00;;;;;;;27.62;46.65;100874.94;5069688;28;20486;-56
2021/06/18 02:24:29;;;;;;;17.80;12.20;;;;;;;27.42;47.36;100883.44;5075629;28;20465;-49
2021/06/18 02:27:00;;;;;;;15.90;11.23;;;;;;;27.66;46.77;100873.97;5064125;28;20451;-57
2021/06/18 02:29:27;;;;;;;18.30;12.10;;;;;;;27.50;46.98;100863.78;5074778;28;20478;-47
2021/06/18 02:31:55;;;;;;;15.07;11.50;;;;;;;27.53;47.17;100859.28;5063966;28;20458;-53
2021/06/18 02:34:23;;;;;;;14.10;11.23;;;;;;;27.50;46.72;100857.59;5074105;28;20550;-52
2021/06/18 02:36:52;;;;;;;15.13;10.97;;;;;;;27.55;46.58;100858.34;5073925;28;20485;-53
2021/06/18 02:39:20;;;;;;;17.50;11.73;;;;;;;27.76;46.23;100859.53;5075094;28;20494;-55
2021/06/18 02:41:49;;;;;;;19.40;11.33;;;;;;;27.63;46.55;100866.97;5065166;28;20467;-52
2021/06/18 02:44:16;;;;;;;18.33;12.13;;;;;;;27.69;46.42;100865.06;5074502;28;20486;-49
2021/06/18 02:46:56;;;;;;;17.50;12.20;;;;;;;27.60;46.62;100860.88;5064586;28;20465;-51
2021/06/18 02:49:28;;;;;;;22.00;13.27;;;;;;;27.64;46.39;100857.25;5074337;28;20478;-50
2021/06/18 02:52:01;;;;;;;19.17;11.63;;;;;;;27.66;46.50;100859.81;5073872;28;20457;-54
2021/06/18 02:54:32;;;;;;;19.63;12.97;;;;;;;27.53;46.55;100860.13;5075427;28;20466;-53
2021/06/18 02:57:02;;;;;;;19.87;12.60;;;;;;;27.51;47.15;100856.66;5073948;28;20489;-52
2021/06/18 02:59:32;;;;;;;18.13;12.60;;;;;;;27.53;46.73;100861.94;5075344;28;20482;-52
2021/06/18 03:02:01;;;;;;;20.50;12.67;;;;;;;27.68;46.25;100858.03;5064489;28;20459;-51
2021/06/18 03:04:32;;;;;;;17.10;13.30;;;;;;;27.59;46.46;100865.28;5074571;28;20767;-52
2021/06/18 03:07:04;;;;;;;17.03;11.90;;;;;;;27.69;46.65;100865.06;5073790;28;20458;-54
2021/06/18 03:09:33;;;;;;;18.30;12.30;;;;;;;27.67;46.28;100861.59;5075037;28;20486;-52
2021/06/18 03:12:01;;;;;;;21.83;13.67;;;;;;;27.53;47.00;100864.59;5072816;28;20465;-52
2021/06/18 03:14:31;;;;;;;28.50;19.40;;;;;;;27.39;47.20;100870.25;5075023;28;20531;-48
2021/06/18 03:17:00;;;;;;;20.90;13.43;;;;;;;27.35;47.23;100865.06;5073018;28;20556;-52
2021/06/18 03:19:31;;;;;;;20.30;14.03;;;;;;;27.45;47.06;100859.50;5075175;28;20797;-52
2021/06/18 03:22:01;;;;;;;20.47;14.63;;;;;;;27.47;47.05;100870.91;5064028;28;20465;-51
2021/06/18 03:24:30;;;;;;;48.40;30.30;;;;;;;27.36;47.45;100873.84;5074463;28;20454;-51
2021/06/18 03:26:58;;;;;;;34.53;23.77;;;;;;;27.46;47.04;100861.22;5074018;28;20769;-47
2021/06/18 03:29:27;;;;;;;22.87;16.37;;;;;;;27.51;47.03;100867.28;5074500;28;20777;-50
2021/06/18 03:31:55;;;;;;;19.47;14.33;;;;;;;27.33;47.32;100868.66;5073470;28;20455;-54
2021/06/18 03:34:24;;;;;;;23.77;16.87;;;;;;;27.61;46.90;100863.50;5074784;28;20458;-52
2021/06/18 03:36:52;;;;;;;17.83;13.63;;;;;;;27.44;47.06;100871.88;5073739;28;20513;-51
2021/06/18 03:39:21;;;;;;;19.73;14.47;;;;;;;27.50;46.90;100871.72;5074576;28;20489;-53
2021/06/18 03:41:51;;;;;;;18.47;13.07;;;;;;;27.52;47.28;100863.69;5073405;28;20454;-52
2021/06/18 03:44:19;;;;;;;25.50;18.70;;;;;;;27.52;47.09;100869.00;5074770;28;20483;-53
2021/06/18 03:46:51;;;;;;;19.30;13.70;;;;;;;27.41;47.48;100866.66;5073158;28;20459;-53
2021/06/18 03:49:19;;;;;;;20.13;14.43;;;;;;;27.26;47.73;100867.94;5074580;28;20486;-52
2021/06/18 03:51:46;;;;;;;19.93;13.10;;;;;;;27.20;47.69;100873.38;5063639;28;20468;-51
2021/06/18 03:54:14;;;;;;;25.03;16.30;;;;;;;27.45;47.38;100870.09;5073487;28;20489;-54
2021/06/18 03:56:48;;;;;;;22.80;18.43;;;;;;;27.50;47.10;100861.13;5074030;28;20455;-54
2021/06/18 03:59:16;;;;;;;18.47;14.10;;;;;;;27.82;46.35;100876.16;5074289;28;20462;-51
2021/06/18 04:01:51;;;;;;;22.63;15.20;;;;;;;27.77;46.48;100881.59;5074112;28;20493;-53
2021/06/18 04:04:20;;;;;;;25.70;17.10;;;;;;;27.73;46.88;100880.81;5074494;28;20482;-54
2021/06/18 04:06:48;;;;;;;100.10;62.30;;;;;;;28.01;46.08;100881.81;5073042;28;20458;-50
2021/06/18 04:09:16;;;;;;;33.73;23.67;;;;;;;27.96;46.08;100881.06;5073914;28;20486;-50
2021/06/18 04:11:50;;;;;;;36.77;26.43;;;;;;;27.87;46.04;100880.44;5063506;28;20830;-52
2021/06/18 04:14:18;;;;;;;34.37;23.80;;;;;;;28.19;45.72;100874.22;5073149;28;20561;-49
2021/06/18 04:16:48;;;;;;;25.70;16.20;;;;;;;27.96;46.26;100875.75;5071648;28;20774;-52
2021/06/18 04:19:16;;;;;;;20.37;13.50;;;;;;;27.77;46.82;100873.63;5074153;28;20497;-53
2021/06/18 04:21:45;;;;;;;22.33;16.40;;;;;;;27.84;46.25;100879.66;5075451;28;20519;-50
2021/06/18 04:24:13;;;;;;;29.67;19.27;;;;;;;28.04;45.99;100871.09;5078021;28;20490;-54
2021/06/18 04:26:49;;;;;;;21.20;15.33;;;;;;;28.21;45.85;100875.03;5077732;28;20558;-49
2021/06/18 04:29:18;;;;;;;30.40;20.70;;;;;;;28.29;45.75;100881.00;5076771;28;20456;-52
2021/06/18 04:31:46;;;;;;;24.97;16.57;;;;;;;28.41;45.40;100879.75;5066794;28;20465;-52
2021/06/18 04:34:14;;;;;;;22.73;14.30;;;;;;;28.39;45.35;100870.97;5076902;28;20489;-50
2021/06/18 04:36:46;;;;;;;22.90;16.43;;;;;;;28.61;44.51;100878.25;5076607;28;20462;-56
2021/06/18 04:39:14;;;;;;;34.00;25.07;;;;;;;28.70;44.56;100872.63;5077448;28;20494;-48
2021/06/18 04:41:50;;;;;;;36.83;19.90;;;;;;;28.66;44.57;100868.38;5077804;28;20469;-51
2021/06/18 04:44:19;;;;;;;26.77;19.00;;;;;;;28.41;45.31;100880.59;5077112;28;20463;-53
2021/06/18 04:46:46;;;;;;;19.63;15.30;;;;;;;28.66;44.69;100873.66;5076184;28;20462;-51
2021/06/18 04:49:14;;;;;;;25.07;18.60;;;;;;;28.93;43.94;100871.03;5076963;28;20835;-49
2021/06/18 04:51:48;;;;;;;25.33;18.07;;;;;;;28.77;44.35;100873.31;5077524;28;20465;-51
2021/06/18 04:54:16;;;;;;;23.90;16.70;;;;;;;28.92;44.02;100872.81;5057116;28;20774;-55
2021/06/18 04:56:43;;;;;;;18.20;11.47;;;;;;;28.84;44.55;100864.22;5056093;28;20466;-51
2021/06/18 04:59:11;;;;;;;24.73;15.03;;;;;;;29.07;43.95;100867.94;5077249;28;20498;-52
2021/06/18 05:01:40;;;;;;;16.90;12.10;;;;;;;29.06;44.15;100876.81;5077674;28;20454;-49
2021/06/18 05:04:14;;;;;;;19.60;12.80;;;;;;;29.34;43.28;100863.44;5076959;28;20458;-49
2021/06/18 05:06:43;;;;;;;19.30;12.67;;;;;;;29.09;43.86;100868.72;5073856;28;20516;-56
2021/06/18 05:09:10;;;;;;;17.23;11.70;;;;;;;29.10;43.89;100866.03;5076857;28;20793;-50
2021/06/18 05:11:38;;;;;;;18.67;12.10;;;;;;;29.12;43.79;100868.66;5077246;28;20916;-51
2021/06/18 05:14:06;;;;;;;23.90;15.43;;;;;;;29.26;43.52;100873.44;5075335;28;20475;-50
2021/06/18 05:16:33;;;;;;;23.67;12.70;;;;;;;29.41;43.25;100872.03;5076745;28;20455;-49
2021/06/18 05:19:02;;;;;;;21.17;13.67;;;;;;;29.69;42.80;100870.22;5064503;28;20492;-49
2021/06/18 05:21:30;;;;;;;14.40;11.93;;;;;;;29.77;42.64;100879.63;5077010;28;20461;-53
2021/06/18 05:23:57;;;;;;;15.10;10.93;;;;;;;29.44;42.91;100877.25;5075437;28;20792;-52
2021/06/18 05:26:25;;;;;;;19.33;10.60;;;;;;;29.85;42.44;100882.03;5076229;28;20472;-51
2021/06/18 05:28:52;;;;;;;20.03;11.47;;;;;;;29.95;41.55;100882.53;5074549;28;20483;-53
2021/06/18 05:31:20;;;;;;;16.93;12.20;;;;;;;29.91;41.19;100880.91;5076660;28;20882;-51
2021/06/18 05:33:48;;;;;;;17.60;11.43;;;;;;;29.95;41.15;100886.97;5074157;28;20846;-52
2021/06/18 05:36:17;;;;;;;16.50;12.50;;;;;;;29.88;40.78;100886.34;5076146;28;20463;-54
2021/06/18 05:38:44;;;;;;;15.90;10.20;;;;;;;30.30;40.54;100888.31;5075104;28;20486;-54
2021/06/18 05:41:12;;;;;;;16.10;10.60;;;;;;;30.27;40.86;100884.91;5076742;28;20472;-52
2021/06/18 05:43:40;;;;;;;20.40;10.73;;;;;;;30.17;41.13;100893.25;5074934;28;20485;-51
2021/06/18 05:46:07;;;;;;;16.67;10.30;;;;;;;30.25;40.99;100894.75;5076151;28;20478;-52
2021/06/18 05:48:35;;;;;;;14.20;10.77;;;;;;;30.47;40.33;100902.75;5064186;28;20968;-52
2021/06/18 05:51:02;;;;;;;16.17;10.40;;;;;;;30.59;40.17;100899.59;5076230;28;20462;-51
2021/06/18 05:53:31;;;;;;;16.80;10.53;;;;;;;30.59;39.93;100898.72;5072009;28;20481;-49
2021/06/18 05:55:59;;;;;;;13.17;10.80;;;;;;;30.78;39.58;100898.00;5076058;28;20462;-50
2021/06/18 05:58:27;;;;;;;15.20;11.07;;;;;;;30.80;38.98;100896.16;5071389;28;20949;-50
2021/06/18 06:00:55;;;;;;;20.63;12.87;;;;;;;30.91;38.59;100893.03;5075121;28;20477;-48
2021/06/18 06:03:23;;;;;;;15.10;9.50;;;;;;;30.61;38.91;100906.63;5074564;28;20493;-48
2021/06/18 06:05:50;;;;;;;14.60;10.10;;;;;;;30.79;38.65;100905.03;5075736;28;20455;-52
2021/06/18 06:08:19;;;;;;;13.57;10.03;;;;;;;30.84;38.13;100903.94;5070272;28;20475;-55
2021/06/18 06:10:49;;;;;;;14.00;9.60;;;;;;;30.78;37.92;100904.19;5075773;28;20968;-49
2021/06/18 06:13:18;;;;;;;14.87;10.00;;;;;;;31.00;38.16;100897.97;5074574;28;20482;-55
2021/06/18 06:15:47;;;;;;;13.60;9.73;;;;;;;31.12;38.06;100902.75;5075651;28;20623;-49
2021/06/18 06:18:15;;;;;;;15.13;10.83;;;;;;;31.20;37.77;100904.22;5073375;28;20482;-53
2021/06/18 06:20:43;;;;;;;13.27;10.20;;;;;;;30.98;38.37;100900.69;5075923;28;20506;-54
2021/06/18 06:23:11;;;;;;;34.93;26.40;;;;;;;31.05;38.32;100901.28;5069562;28;20482;-49
2021/06/18 06:25:40;;;;;;;48.13;31.57;;;;;;;31.44;37.61;100894.34;5075465;28;20897;-52
2021/06/18 06:28:09;;;;;;;32.83;23.70;;;;;;;31.41;37.35;100901.63;5074362;28;20478;-48
2021/06/18 06:30:36;;;;;;;25.47;14.60;;;;;;;31.63;37.52;100898.88;5075226;28;20474;-54
2021/06/18 06:33:05;;;;;;;12.37;9.93;;;;;;;31.76;37.25;100889.38;5074320;28;20527;-51
2021/06/18 06:35:33;;;;;;;17.90;9.97;;;;;;;30.96;38.49;100891.06;5074725;28;20502;-53
2021/06/18 06:38:01;;;;;;;13.87;9.97;;;;;;;31.60;37.71;100893.66;5067809;28;20532;-52
2021/06/18 06:40:28;;;;;;;20.87;16.30;;;;;;;31.72;37.44;100901.09;5075222;28;20483;-52
2021/06/18 06:42:56;;;;;;;20.57;13.83;;;;;;;31.27;37.82;100895.06;5074401;28;20501;-54
2021/06/18 06:45:25;;;;;;;14.50;10.57;;;;;;;31.77;37.69;100892.88;5074541;28;20917;-54
2021/06/18 06:47:52;;;;;;;16.77;10.40;;;;;;;32.18;36.90;100903.47;5074079;28;20493;-54
2021/06/18 06:50:20;;;;;;;30.93;13.50;;;;;;;32.16;36.74;100900.03;5075364;28;20478;-51
2021/06/18 06:52:48;;;;;;;15.67;10.30;;;;;;;32.03;37.24;100898.84;5064123;28;20929;-48
2021/06/18 06:55:16;;;;;;;11.23;9.37;;;;;;;32.18;36.84;100902.59;5074224;28;20458;-54
2021/06/18 06:57:44;;;;;;;29.50;19.00;;;;;;;32.42;36.58;100905.06;5074018;28;20473;-55
2021/06/18 07:00:12;;;;;;;14.90;11.37;;;;;;;32.67;35.96;100904.75;5075327;28;20805;-56
2021/06/18 07:02:43;;;;;;;16.40;10.40;;;;;;;32.27;36.94;100901.28;5063976;28;20487;-49
2021/06/18 07:05:12;;;;;;;12.57;9.73;;;;;;;32.46;36.93;100904.84;5074967;28;20545;-54
2021/06/18 07:07:39;;;;;;;16.40;10.17;;;;;;;32.70;36.53;100904.56;5073685;28;20785;-53
2021/06/18 07:10:08;;;;;;;12.17;10.83;;;;;;;32.84;36.46;100905.69;5074662;28;20792;-53
2021/06/18 07:12:36;;;;;;;19.07;11.00;;;;;;;32.49;36.52;100900.31;5073516;28;20478;-50
2021/06/18 07:15:05;;;;;;;25.67;18.37;;;;;;;32.84;35.96;100906.56;5075192;28;20462;-51
2021/06/18 07:17:33;;;;;;;22.40;10.00;;;;;;;32.95;35.47;100911.41;5073797;28;20483;-54
2021/06/18 07:20:02;;;;;;;21.13;10.13;;;;;;;33.03;35.77;100913.69;5074780;28;20483;-51
2021/06/18 07:22:30;;;;;;;16.23;9.73;;;;;;;33.22;36.16;100918.94;5073632;28;20490;-55
2021/06/18 07:24:58;;;;;;;12.40;8.87;;;;;;;33.47;35.94;100911.47;5075108;28;20461;-56
2021/06/18 07:27:26;;;;;;;16.27;10.40;;;;;;;33.57;35.94;100911.88;5073557;28;20549;-53
2021/06/18 07:29:54;;;;;;;15.83;10.20;;;;;;;32.85;34.26;100912.75;5074267;28;20486;-48
2021/06/18 07:32:23;;;;;;;16.37;10.50;;;;;;;32.84;34.66;100908.38;5073539;28;20479;-55
2021/06/18 07:34:51;;;;;;;14.10;9.80;;;;;;;32.53;35.40;100917.88;5074670;28;20455;-51
2021/06/18 07:37:20;;;;;;;12.80;10.10;;;;;;;32.68;34.78;100911.81;5073290;28;20562;-51
2021/06/18 07:39:48;;;;;;;13.30;9.83;;;;;;;33.38;33.74;100910.13;5074879;28;20486;-55
2021/06/18 07:42:29;;;;;;;21.50;14.00;;;;;;;33.04;34.59;100912.75;5073769;28;20470;-51
2021/06/18 07:44:57;;;;;;;13.67;9.87;;;;;;;32.67;34.54;100911.88;5074749;28;20466;-55
2021/06/18 07:47:24;;;;;;;19.77;9.70;;;;;;;33.34;33.91;100901.41;5073133;28;20479;-54
2021/06/18 07:49:52;;;;;;;12.13;9.40;;;;;;;33.52;33.83;100904.09;5074451;28;20473;-53
2021/06/18 07:52:21;;;;;;;22.67;13.07;;;;;;;33.50;34.88;100898.81;5073484;28;20482;-51
2021/06/18 07:54:52;;;;;;;16.67;10.73;;;;;;;34.24;33.95;100898.44;5074625;28;20458;-54
2021/06/18 07:57:19;;;;;;;16.73;9.60;;;;;;;34.41;32.67;100893.94;5076253;28;20474;-51
2021/06/18 07:59:47;;;;;;;14.33;9.77;;;;;;;34.01;34.18;100900.56;5078353;28;20497;-53
2021/06/18 08:02:15;;;;;;;11.17;9.43;;;;;;;33.61;33.39;100908.06;5077116;28;20478;-51
2021/06/18 08:04:51;;;;;;;16.33;9.87;;;;;;;33.79;33.15;100909.75;5078507;28;20846;-54
2021/06/18 08:07:18;;;;;;;11.43;9.53;;;;;;;34.43;32.68;100908.09;5076659;28;20951;-51
2021/06/18 08:09:47;;;;;;;13.23;8.80;;;;;;;34.68;31.07;100906.72;5077855;28;20479;-54
2021/06/18 08:12:15;;;;;;;13.40;9.90;;;;;;;34.33;32.05;100900.59;5076916;28;20984;-53
2021/06/18 08:14:42;;;;;;;14.27;9.50;;;;;;;34.58;31.88;100890.31;5077881;28;20466;-52
2021/06/18 08:17:10;;;;;;;15.00;10.30;;;;;;;34.96;30.82;100892.56;5076880;28;20769;-54
2021/06/18 08:19:37;;;;;;;14.73;9.43;;;;;;;34.56;31.02;100886.84;5077896;28;20488;-56
2021/06/18 08:22:05;;;;;;;13.80;10.20;;;;;;;34.86;31.46;100892.22;5076551;28;20481;-53
2021/06/18 08:24:33;;;;;;;13.57;10.57;;;;;;;34.92;31.19;100884.78;5077864;28;20458;-54
2021/06/18 08:27:04;;;;;;;11.87;8.33;;;;;;;34.83;31.21;100889.75;5076080;28;20462;-54
2021/06/18 08:29:31;;;;;;;12.03;8.63;;;;;;;35.13;30.50;100883.56;5078101;28;20493;-54
2021/06/18 08:31:59;;;;;;;16.27;9.30;;;;;;;35.58;29.86;100874.59;5076702;28;20451;-53
2021/06/18 08:34:26;;;;;;;16.43;9.30;;;;;;;34.81;30.75;100878.25;5077833;28;20454;-52
2021/06/18 08:36:54;;;;;;;16.50;9.33;;;;;;;34.28;31.72;100875.91;5063608;28;20913;-51
2021/06/18 08:39:22;;;;;;;12.37;9.47;;;;;;;34.43;31.89;100878.63;5076528;28;20474;-53
2021/06/18 08:41:50;;;;;;;22.30;17.20;;;;;;;34.72;31.14;100877.00;5065606;28;20454;-56
2021/06/18 08:44:19;;;;;;;16.50;9.60;;;;;;;35.45;30.45;100873.59;5076491;28;20504;-53
2021/06/18 08:46:47;;;;;;;15.13;9.10;;;;;;;35.83;29.38;100861.47;5065523;28;20766;-55
2021/06/18 08:49:15;;;;;;;12.30;9.10;;;;;;;35.52;30.07;100859.72;5076611;28;20489;-52
2021/06/18 08:51:45;;;;;;;17.73;9.10;;;;;;;35.44;30.20;100871.88;5072595;28;20461;-53
2021/06/18 08:54:13;;;;;;;19.80;12.40;;;;;;;36.02;29.36;100858.44;5077365;28;20482;-55
2021/06/18 08:56:44;;;;;;;17.17;11.47;;;;;;;36.38;28.58;100873.13;5077164;28;20511;-56
2021/06/18 08:59:12;;;;;;;15.53;9.23;;;;;;;36.51;28.81;100872.31;5076606;28;20783;-54
2021/06/18 09:01:45;;;;;;;13.67;10.17;;;;;;;36.46;28.24;100870.81;5077339;28;20569;-55
2021/06/18 09:04:12;;;;;;;23.23;14.73;;;;;;;36.25;28.75;100865.03;5077030;28;20454;-49
2021/06/18 09:06:44;;;;;;;17.30;8.87;;;;;;;36.49;28.50;100861.66;5076400;28;20455;-53
2021/06/18 09:09:16;;;;;;;12.40;9.00;;;;;;;36.68;27.89;100863.16;5056888;28;20538;-51
2021/06/18 09:11:46;;;;;;;14.77;9.90;;;;;;;37.01;27.48;100870.72;5056525;28;20922;-53
2021/06/18 09:14:18;;;;;;;22.17;12.87;;;;;;;36.91;28.08;100869.66;5077106;28;20500;-53
2021/06/18 09:17:09;;;;;;;13.90;8.73;;;;;;;37.20;27.57;100858.72;5065206;28;20467;-55
2021/06/18 09:19:38;;;;;;;21.63;14.63;;;;;;;36.97;28.43;100863.00;5076314;28;20504;-55
2021/06/18 09:22:07;;;;;;;17.87;9.97;;;;;;;37.09;28.13;100867.56;5075868;28;20496;-54
2021/06/18 09:24:37;;;;;;;17.33;12.33;;;;;;;36.65;27.08;100858.84;5077228;28;20548;-51
2021/06/18 09:27:05;;;;;;;17.77;9.40;;;;;;;36.81;27.54;100864.06;5075869;28;20470;-52
2021/06/18 09:29:34;;;;;;;17.00;9.97;;;;;;;36.86;27.63;100850.31;5076710;28;20479;-54
2021/06/18 09:32:05;;;;;;;10.70;8.50;;;;;;;36.93;27.95;100854.28;5066608;28;20477;-53
2021/06/18 09:34:50;;;;;;;14.80;8.90;;;;;;;36.88;28.44;100862.66;5076158;28;20876;-51
2021/06/18 09:37:21;;;;;;;21.40;9.77;;;;;;;37.17;28.40;100858.97;5072523;28;20477;-53
2021/06/18 09:40:11;;;;;;;14.17;9.20;;;;;;;37.50;28.33;100857.53;5076600;28;20479;-51
2021/06/18 09:42:48;;;;;;;14.90;10.50;;;;;;;37.78;28.73;100852.03;5075346;28;20795;-54
2021/06/18 09:45:17;;;;;;;14.90;10.80;;;;;;;37.07;29.52;100847.09;5076438;28;20963;-52
2021/06/18 09:47:48;;;;;;;11.80;10.17;;;;;;;37.01;29.92;100853.75;5064816;28;20517;-51
2021/06/18 09:50:25;;;;;;;21.07;14.50;;;;;;;37.14;30.33;100848.41;5075960;28;21252;-51
2021/06/18 09:52:54;;;;;;;14.50;10.70;;;;;;;37.40;30.17;100838.50;5075180;28;20559;-51
2021/06/18 09:55:23;;;;;;;12.87;10.40;;;;;;;37.65;29.52;100841.28;5075733;28;20461;-50
2021/06/18 09:57:54;;;;;;;14.67;12.07;;;;;;;37.32;29.94;100840.00;5064733;28;20485;-51
2021/06/18 10:00:24;;;;;;;15.50;10.90;;;;;;;37.51;29.55;100832.34;5075904;28;20486;-49
2021/06/18 10:02:54;;;;;;;13.20;10.03;;;;;;;37.47;29.90;100835.38;5064836;28;21183;-56
2021/06/18 10:05:24;;;;;;;16.63;11.60;;;;;;;37.12;30.28;100834.22;5075639;28;20965;-53
2021/06/18 10:07:53;;;;;;;15.33;10.37;;;;;;;37.65;29.43;100831.41;5075127;28;20481;-55
2021/06/18 10:10:22;;;;;;;22.43;10.90;;;;;;;37.75;28.94;100831.59;5076087;28;20483;-54
2021/06/18 10:12:50;;;;;;;12.93;10.70;;;;;;;37.82;28.82;100827.47;5074619;28;20478;-54
2021/06/18 10:15:20;;;;;;;16.40;10.40;;;;;;;38.14;29.24;100836.00;5075233;28;20770;-54
2021/06/18 10:17:48;;;;;;;17.67;10.23;;;;;;;37.87;29.26;100834.34;5067926;28;20492;-52
2021/06/18 10:20:19;;;;;;;13.53;10.10;;;;;;;37.89;29.31;100832.41;5075448;28;20481;-51
2021/06/18 10:22:52;;;;;;;15.23;10.10;;;;;;;37.43;30.47;100832.06;5074501;28;20532;-54
2021/06/18 10:25:24;;;;;;;14.80;10.03;;;;;;;38.26;29.36;100835.06;5075606;28;20454;-53
2021/06/18 10:27:52;;;;;;;21.97;11.23;;;;;;;38.08;28.14;100827.41;5064868;28;20510;-55
2021/06/18 10:30:46;;;;;;;15.17;10.37;;;;;;;38.31;27.83;100826.66;5075195;28;20619;-57
2021/06/18 10:33:37;;;;;;;13.10;10.93;;;;;;;38.74;27.68;100827.91;5062710;28;20555;-48
2021/06/18 10:36:24;;;;;;;15.87;10.60;;;;;;;38.98;27.32;100818.91;5074855;28;20466;-50
2021/06/18 10:39:06;;;;;;;13.77;10.60;;;;;;;38.29;28.81;100824.06;5074085;28;20789;-54
2021/06/18 10:41:33;;;;;;;16.10;10.77;;;;;;;38.41;28.86;100824.09;5075505;28;20515;-53
2021/06/18 10:44:01;;;;;;;17.47;10.83;;;;;;;38.35;29.00;100836.22;5059462;28;20785;-54
2021/06/18 10:46:32;;;;;;;15.57;10.60;;;;;;;38.74;27.95;100825.22;5075039;28;20951;-53
2021/06/18 10:49:08;;;;;;;18.40;12.83;;;;;;;38.54;29.02;100832.16;5066403;28;20479;-53
2021/06/18 10:51:39;;;;;;;16.37;13.57;;;;;;;38.58;29.03;100823.72;5074793;28;20864;-47
2021/06/18 10:54:25;;;;;;;14.00;10.70;;;;;;;38.30;29.07;100824.94;5074776;28;20458;-54
2021/06/18 10:57:06;;;;;;;18.03;11.47;;;;;;;39.15;28.61;100822.97;5073935;28;20508;-56
2021/06/18 10:59:37;;;;;;;14.07;10.27;;;;;;;38.33;28.41;100820.16;5075063;28;20479;-56
2021/06/18 11:02:42;;;;;;;15.27;11.10;;;;;;;38.84;28.65;100820.84;5074031;28;20471;-55
2021/06/18 11:05:32;;;;;;;13.97;10.47;;;;;;;38.53;28.17;100817.81;5013573;28;20464;-49
2021/06/18 11:08:24;;;;;;;17.63;10.33;;;;;;;38.67;27.64;100821.28;5011894;28;20900;-53
2021/06/18 11:11:02;;;;;;;15.57;11.03;;;;;;;38.21;28.51;100818.41;5065910;28;20461;-53
2021/06/18 11:13:30;;;;;;;17.80;12.37;;;;;;;38.36;28.20;100819.94;5062081;28;20582;-50
2021/06/18 11:15:57;;;;;;;14.37;10.80;;;;;;;38.57;28.99;100821.13;5074642;28;20454;-54
2021/06/18 11:18:36;;;;;;;15.57;10.43;;;;;;;38.29;29.25;100818.66;5073596;28;20557;-53
2021/06/18 11:21:07;;;;;;;16.10;12.13;;;;;;;38.97;28.03;100811.78;5075287;28;20482;-53
2021/06/18 11:23:38;;;;;;;15.83;11.17;;;;;;;39.01;27.59;100805.22;5063728;28;20498;-55
2021/06/18 11:26:11;;;;;;;14.30;11.10;;;;;;;38.91;27.59;100802.38;5074664;28;20459;-48